Hector, Minnesota
Current Conditions -  °F | °C
As of 9:53 AM on Sunday 21 Dec 2014 (Local Time) from KOVL Reporting Station
Moderate Fog Moderate Fog  
Wind Chill: 26°   Ceiling: 100
Heat Index: 34°   Visibility: 0.25mi
Dew Point: 32°   Wind: 10mph
Humidity: 93%   Direction: 150°SSE
Pressure: 29.78"   Gusts: NA
Location:  44.74°N, 94.72°W
Report Text: KOVL 211553Z AUTO 15009KT 1/4SM FG OVC001 01/00 A2978 RMK AO2
Loading
Personal Weather Stations






























Interactive Weather Map New forecast layout! Learn more

10-Day Weather Forecast

Advertisements
Track Severe Weather on mobile